sensor_id;sensor_type;location;lat;lon;timestamp;temperature;humidity
59067;DHT22;44854;50.838;4.438;2023-03-19T05:23:11;11.30;99.90
59067;DHT22;44854;50.838;4.438;2023-03-19T05:25:38;11.30;99.90
59067;DHT22;44854;50.838;4.438;2023-03-19T05:28:05;11.30;99.90
59067;DHT22;44854;50.838;4.438;2023-03-19T05:30:32;11.30;99.90
59067;DHT22;44854;50.838;4.438;2023-03-19T05:32:57;11.30;99.90
59067;DHT22;44854;50.838;4.438;2023-03-19T05:35:24;11.30;99.90
59067;DHT22;44854;50.838;4.438;2023-03-19T05:37:50;11.30;99.90
59067;DHT22;44854;50.838;4.438;2023-03-19T05:40:15;11.20;99.90
59067;DHT22;44854;50.838;4.438;2023-03-19T05:42:41;11.10;99.90
59067;DHT22;44854;50.838;4.438;2023-03-19T05:45:07;11.10;99.90
59067;DHT22;44854;50.838;4.438;2023-03-19T05:47:32;11.10;99.90
59067;DHT22;44854;50.838;4.438;2023-03-19T05:49:59;11.10;99.90
59067;DHT22;44854;50.838;4.438;2023-03-19T05:52:25;11.10;99.90
59067;DHT22;44854;50.838;4.438;2023-03-19T05:54:50;11.00;99.90
59067;DHT22;44854;50.838;4.438;2023-03-19T05:57:16;11.00;99.90
59067;DHT22;44854;50.838;4.438;2023-03-19T05:59:41;11.00;99.90
59067;DHT22;44854;50.838;4.438;2023-03-19T06:02:07;11.00;99.90
59067;DHT22;44854;50.838;4.438;2023-03-19T06:04:33;11.00;99.90
59067;DHT22;44854;50.838;4.438;2023-03-19T06:06:58;11.10;99.90
59067;DHT22;44854;50.838;4.438;2023-03-19T06:09:24;11.10;99.90
59067;DHT22;44854;50.838;4.438;2023-03-19T06:11:50;11.00;99.90
59067;DHT22;44854;50.838;4.438;2023-03-19T06:14:15;11.00;99.90
59067;DHT22;44854;50.838;4.438;2023-03-19T06:16:41;10.90;99.90
59067;DHT22;44854;50.838;4.438;2023-03-19T06:19:06;11.00;99.90
59067;DHT22;44854;50.838;4.438;2023-03-19T06:21:32;10.90;99.90
59067;DHT22;44854;50.838;4.438;2023-03-19T06:23:58;10.90;99.90
59067;DHT22;44854;50.838;4.438;2023-03-19T06:26:24;10.80;99.90
59067;DHT22;44854;50.838;4.438;2023-03-19T06:28:49;10.80;99.90
59067;DHT22;44854;50.838;4.438;2023-03-19T06:31:15;10.80;99.90
59067;DHT22;44854;50.838;4.438;2023-03-19T06:33:41;10.90;99.90
59067;DHT22;44854;50.838;4.438;2023-03-19T06:36:06;10.80;99.90
59067;DHT22;44854;50.838;4.438;2023-03-19T06:38:32;10.80;99.90
59067;DHT22;44854;50.838;4.438;2023-03-19T06:40:58;10.80;99.90
59067;DHT22;44854;50.838;4.438;2023-03-19T06:43:23;10.70;99.90
59067;DHT22;44854;50.838;4.438;2023-03-19T06:45:49;10.70;99.90
59067;DHT22;44854;50.838;4.438;2023-03-19T06:48:14;10.80;99.90
59067;DHT22;44854;50.838;4.438;2023-03-19T06:50:40;10.80;99.90
59067;DHT22;44854;50.838;4.438;2023-03-19T06:53:06;10.80;99.90
59067;DHT22;44854;50.838;4.438;2023-03-19T06:55:32;10.80;99.90
59067;DHT22;44854;50.838;4.438;2023-03-19T06:57:57;10.90;99.90
59067;DHT22;44854;50.838;4.438;2023-03-19T07:00:23;10.80;99.90
59067;DHT22;44854;50.838;4.438;2023-03-19T07:02:49;11.00;99.90
59067;DHT22;44854;50.838;4.438;2023-03-19T07:05:15;10.80;99.90
59067;DHT22;44854;50.838;4.438;2023-03-19T07:07:40;10.80;99.90
59067;DHT22;44854;50.838;4.438;2023-03-19T07:10:06;10.80;99.90
59067;DHT22;44854;50.838;4.438;2023-03-19T07:12:33;10.90;99.90
59067;DHT22;44854;50.838;4.438;2023-03-19T07:14:58;10.90;99.90
59067;DHT22;44854;50.838;4.438;2023-03-19T07:17:24;11.00;99.90
59067;DHT22;44854;50.838;4.438;2023-03-19T07:19:50;11.10;99.90
59067;DHT22;44854;50.838;4.438;2023-03-19T07:22:16;11.10;99.90
59067;DHT22;44854;50.838;4.438;2023-03-19T07:24:41;11.20;99.90
59067;DHT22;44854;50.838;4.438;2023-03-19T07:27:07;11.20;99.90
59067;DHT22;44854;50.838;4.438;2023-03-19T07:29:32;11.30;99.90
59067;DHT22;44854;50.838;4.438;2023-03-19T07:31:58;11.40;99.90
59067;DHT22;44854;50.838;4.438;2023-03-19T07:34:23;11.40;99.90
59067;DHT22;44854;50.838;4.438;2023-03-19T07:36:49;11.30;99.90
59067;DHT22;44854;50.838;4.438;2023-03-19T07:39:15;11.40;99.90
59067;DHT22;44854;50.838;4.438;2023-03-19T07:41:41;11.50;99.90
59067;DHT22;44854;50.838;4.438;2023-03-19T07:44:09;11.60;99.90
59067;DHT22;44854;50.838;4.438;2023-03-19T07:46:35;11.70;99.90
59067;DHT22;44854;50.838;4.438;2023-03-19T07:49:01;11.80;99.90
59067;DHT22;44854;50.838;4.438;2023-03-19T07:51:26;11.80;99.90
59067;DHT22;44854;50.838;4.438;2023-03-19T07:53:52;11.70;99.90
59067;DHT22;44854;50.838;4.438;2023-03-19T07:56:17;11.80;99.90
59067;DHT22;44854;50.838;4.438;2023-03-19T07:58:43;11.80;99.90
59067;DHT22;44854;50.838;4.438;2023-03-19T08:01:09;11.90;99.90
59067;DHT22;44854;50.838;4.438;2023-03-19T08:03:34;12.10;99.90
59067;DHT22;44854;50.838;4.438;2023-03-19T08:06:00;12.30;99.90
59067;DHT22;44854;50.838;4.438;2023-03-19T08:08:26;12.30;99.90
59067;DHT22;44854;50.838;4.438;2023-03-19T08:10:53;12.30;99.90
59067;DHT22;44854;50.838;4.438;2023-03-19T08:13:18;12.60;99.90
59067;DHT22;44854;50.838;4.438;2023-03-19T08:15:44;12.80;99.90
59067;DHT22;44854;50.838;4.438;2023-03-19T08:18:09;12.80;99.90
59067;DHT22;44854;50.838;4.438;2023-03-19T08:20:35;12.90;99.90
59067;DHT22;44854;50.838;4.438;2023-03-19T08:23:01;13.00;99.90
59067;DHT22;44854;50.838;4.438;2023-03-19T08:25:26;13.10;99.90
59067;DHT22;44854;50.838;4.438;2023-03-19T08:27:56;13.10;99.90
59067;DHT22;44854;50.838;4.438;2023-03-19T08:30:22;13.20;99.90
59067;DHT22;44854;50.838;4.438;2023-03-19T08:32:48;13.10;99.90
59067;DHT22;44854;50.838;4.438;2023-03-19T08:35:14;13.10;99.90
59067;DHT22;44854;50.838;4.438;2023-03-19T08:37:40;13.10;99.90
59067;DHT22;44854;50.838;4.438;2023-03-19T08:40:06;13.20;99.90
59067;DHT22;44854;50.838;4.438;2023-03-19T08:42:31;13.20;99.90
59067;DHT22;44854;50.838;4.438;2023-03-19T08:44:57;13.20;99.90
59067;DHT22;44854;50.838;4.438;2023-03-19T08:47:22;13.50;99.90
59067;DHT22;44854;50.838;4.438;2023-03-19T08:49:51;13.50;99.90
59067;DHT22;44854;50.838;4.438;2023-03-19T08:52:18;13.70;99.90
59067;DHT22;44854;50.838;4.438;2023-03-19T08:54:43;13.80;99.90
59067;DHT22;44854;50.838;4.438;2023-03-19T08:57:09;13.80;99.90
59067;DHT22;44854;50.838;4.438;2023-03-19T08:59:34;13.70;99.90
59067;DHT22;44854;50.838;4.438;2023-03-19T09:02:00;13.50;99.90
59067;DHT22;44854;50.838;4.438;2023-03-19T09:04:26;13.40;99.90
59067;DHT22;44854;50.838;4.438;2023-03-19T09:06:51;13.20;99.90
59067;DHT22;44854;50.838;4.438;2023-03-19T09:09:18;13.00;99.90
59067;DHT22;44854;50.838;4.438;2023-03-19T09:11:44;13.10;99.90
59067;DHT22;44854;50.838;4.438;2023-03-19T09:14:09;13.20;99.90
59067;DHT22;44854;50.838;4.438;2023-03-19T09:16:36;13.20;99.90
59067;DHT22;44854;50.838;4.438;2023-03-19T09:19:01;13.30;99.90
59067;DHT22;44854;50.838;4.438;2023-03-19T09:21:27;13.30;99.90
59067;DHT22;44854;50.838;4.438;2023-03-19T09:23:53;13.40;99.90
59067;DHT22;44854;50.838;4.438;2023-03-19T09:26:18;13.60;99.90
59067;DHT22;44854;50.838;4.438;2023-03-19T09:28:44;13.70;99.90
59067;DHT22;44854;50.838;4.438;2023-03-19T09:31:12;14.00;99.90
59067;DHT22;44854;50.838;4.438;2023-03-19T09:33:37;14.00;99.90
59067;DHT22;44854;50.838;4.438;2023-03-19T09:36:03;14.10;99.90
59067;DHT22;44854;50.838;4.438;2023-03-19T09:38:29;14.00;99.90
59067;DHT22;44854;50.838;4.438;2023-03-19T09:51:46;13.90;99.90
59067;DHT22;44854;50.838;4.438;2023-03-19T09:57:01;14.10;99.90
59067;DHT22;44854;50.838;4.438;2023-03-19T09:59:27;14.20;99.90
59067;DHT22;44854;50.838;4.438;2023-03-19T10:01:56;14.10;99.90
59067;DHT22;44854;50.838;4.438;2023-03-19T10:07:02;14.20;99.90
59067;DHT22;44854;50.838;4.438;2023-03-19T10:17:32;14.50;99.90
59067;DHT22;44854;50.838;4.438;2023-03-19T10:20:11;14.60;99.90
59067;DHT22;44854;50.838;4.438;2023-03-19T10:22:42;14.50;99.90
59067;DHT22;44854;50.838;4.438;2023-03-19T10:25:11;14.40;99.90
59067;DHT22;44854;50.838;4.438;2023-03-19T10:27:42;14.40;99.90
59067;DHT22;44854;50.838;4.438;2023-03-19T10:30:18;14.50;99.90
59067;DHT22;44854;50.838;4.438;2023-03-19T10:32:45;14.40;99.90
59067;DHT22;44854;50.838;4.438;2023-03-19T10:37:42;14.30;99.90
59067;DHT22;44854;50.838;4.438;2023-03-19T10:40:13;14.30;99.90
59067;DHT22;44854;50.838;4.438;2023-03-19T10:45:35;14.20;99.90
59067;DHT22;44854;50.838;4.438;2023-03-19T10:48:02;14.10;99.90
59067;DHT22;44854;50.838;4.438;2023-03-19T10:50:29;14.10;99.90
59067;DHT22;44854;50.838;4.438;2023-03-19T10:55:59;14.20;99.90
59067;DHT22;44854;50.838;4.438;2023-03-19T10:58:26;14.00;99.90
59067;DHT22;44854;50.838;4.438;2023-03-19T11:00:55;14.10;99.90
59067;DHT22;44854;50.838;4.438;2023-03-19T11:03:26;14.30;99.90
59067;DHT22;44854;50.838;4.438;2023-03-19T11:08:38;14.70;99.90
59067;DHT22;44854;50.838;4.438;2023-03-19T11:11:04;14.70;99.90
59067;DHT22;44854;50.838;4.438;2023-03-19T11:13:32;14.60;99.90
59067;DHT22;44854;50.838;4.438;2023-03-19T11:15:58;14.40;99.90
59067;DHT22;44854;50.838;4.438;2023-03-19T11:18:28;14.30;99.90
59067;DHT22;44854;50.838;4.438;2023-03-19T11:23:20;14.30;99.90
59067;DHT22;44854;50.838;4.438;2023-03-19T11:25:49;14.30;99.90
59067;DHT22;44854;50.838;4.438;2023-03-19T11:28:17;14.20;99.90
59067;DHT22;44854;50.838;4.438;2023-03-19T11:36:00;14.20;99.90
59067;DHT22;44854;50.838;4.438;2023-03-19T11:38:32;14.10;99.90
59067;DHT22;44854;50.838;4.438;2023-03-19T11:43:29;14.00;99.90
59067;DHT22;44854;50.838;4.438;2023-03-19T11:59:25;13.90;99.90
59067;DHT22;44854;50.838;4.438;2023-03-19T12:12:02;14.10;99.90
59067;DHT22;44854;50.838;4.438;2023-03-19T12:17:09;13.90;99.90
59067;DHT22;44854;50.838;4.438;2023-03-19T12:32:54;14.20;99.90
59067;DHT22;44854;50.838;4.438;2023-03-19T12:35:32;14.50;99.90
59067;DHT22;44854;50.838;4.438;2023-03-19T12:38:00;14.60;99.90
59067;DHT22;44854;50.838;4.438;2023-03-19T12:40:34;14.40;99.90
59067;DHT22;44854;50.838;4.438;2023-03-19T12:43:02;14.30;99.90
59067;DHT22;44854;50.838;4.438;2023-03-19T12:45:31;14.50;99.90
59067;DHT22;44854;50.838;4.438;2023-03-19T12:48:06;14.70;99.90
59067;DHT22;44854;50.838;4.438;2023-03-19T12:50:35;14.80;99.90
59067;DHT22;44854;50.838;4.438;2023-03-19T12:53:03;14.70;99.90
59067;DHT22;44854;50.838;4.438;2023-03-19T12:55:38;14.60;99.90
59067;DHT22;44854;50.838;4.438;2023-03-19T12:58:22;14.60;99.90
59067;DHT22;44854;50.838;4.438;2023-03-19T13:00:51;14.50;99.90
59067;DHT22;44854;50.838;4.438;2023-03-19T13:05:51;14.60;99.90
59067;DHT22;44854;50.838;4.438;2023-03-19T13:08:27;14.90;99.90
59067;DHT22;44854;50.838;4.438;2023-03-19T13:10:53;15.00;99.90
59067;DHT22;44854;50.838;4.438;2023-03-19T13:15:48;15.70;99.90
59067;DHT22;44854;50.838;4.438;2023-03-19T13:23:28;15.10;99.90
59067;DHT22;44854;50.838;4.438;2023-03-19T13:25:55;15.00;99.90
59067;DHT22;44854;50.838;4.438;2023-03-19T13:28:28;14.90;99.90
59067;DHT22;44854;50.838;4.438;2023-03-19T13:31:07;14.60;99.90
59067;DHT22;44854;50.838;4.438;2023-03-19T13:33:47;14.60;99.90
59067;DHT22;44854;50.838;4.438;2023-03-19T13:36:14;14.50;99.90
59067;DHT22;44854;50.838;4.438;2023-03-19T13:38:43;14.50;99.90
59067;DHT22;44854;50.838;4.438;2023-03-19T13:43:54;14.20;99.90
59067;DHT22;44854;50.838;4.438;2023-03-19T13:48:50;14.10;99.90
59067;DHT22;44854;50.838;4.438;2023-03-19T13:56:19;14.00;99.90
59067;DHT22;44854;50.838;4.438;2023-03-19T13:58:49;14.20;99.90
59067;DHT22;44854;50.838;4.438;2023-03-19T14:03:52;14.50;99.90
59067;DHT22;44854;50.838;4.438;2023-03-19T14:09:03;14.60;99.90
59067;DHT22;44854;50.838;4.438;2023-03-19T14:11:30;14.40;99.90
59067;DHT22;44854;50.838;4.438;2023-03-19T14:14:01;14.70;99.90
59067;DHT22;44854;50.838;4.438;2023-03-19T14:16:32;15.00;99.90
59067;DHT22;44854;50.838;4.438;2023-03-19T14:18:59;14.90;99.90
59067;DHT22;44854;50.838;4.438;2023-03-19T14:24:39;14.50;99.90
59067;DHT22;44854;50.838;4.438;2023-03-19T14:27:14;14.50;99.90
59067;DHT22;44854;50.838;4.438;2023-03-19T14:29:42;14.40;99.90
59067;DHT22;44854;50.838;4.438;2023-03-19T14:32:08;14.20;99.90
59067;DHT22;44854;50.838;4.438;2023-03-19T14:34:38;14.00;99.90
59067;DHT22;44854;50.838;4.438;2023-03-19T14:37:24;13.90;99.90
59067;DHT22;44854;50.838;4.438;2023-03-19T14:40:02;14.00;99.90
59067;DHT22;44854;50.838;4.438;2023-03-19T14:42:35;13.80;99.90
59067;DHT22;44854;50.838;4.438;2023-03-19T14:55:39;14.30;99.90
59067;DHT22;44854;50.838;4.438;2023-03-19T14:58:07;14.40;99.90
59067;DHT22;44854;50.838;4.438;2023-03-19T15:00:38;14.20;99.90
59067;DHT22;44854;50.838;4.438;2023-03-19T15:03:06;13.90;99.90
59067;DHT22;44854;50.838;4.438;2023-03-19T15:05:38;13.50;99.90
59067;DHT22;44854;50.838;4.438;2023-03-19T15:08:05;13.30;99.90
59067;DHT22;44854;50.838;4.438;2023-03-19T15:10:34;13.40;99.90
59067;DHT22;44854;50.838;4.438;2023-03-19T15:18:05;13.30;99.90
59067;DHT22;44854;50.838;4.438;2023-03-19T15:20:41;13.40;99.90
59067;DHT22;44854;50.838;4.438;2023-03-19T15:23:08;13.30;99.90
59067;DHT22;44854;50.838;4.438;2023-03-19T15:25:34;13.10;99.90
59067;DHT22;44854;50.838;4.438;2023-03-19T15:28:09;12.90;99.90
59067;DHT22;44854;50.838;4.438;2023-03-19T15:30:35;12.70;99.90
59067;DHT22;44854;50.838;4.438;2023-03-19T15:33:01;12.70;99.90
59067;DHT22;44854;50.838;4.438;2023-03-19T15:35:28;12.60;99.90
59067;DHT22;44854;50.838;4.438;2023-03-19T15:37:56;12.50;99.90
59067;DHT22;44854;50.838;4.438;2023-03-19T15:40:24;12.40;99.90
59067;DHT22;44854;50.838;4.438;2023-03-19T15:42:51;12.30;99.90
59067;DHT22;44854;50.838;4.438;2023-03-19T15:45:18;12.20;99.90
59067;DHT22;44854;50.838;4.438;2023-03-19T15:47:53;12.10;99.90
59067;DHT22;44854;50.838;4.438;2023-03-19T15:50:22;12.10;99.90
59067;DHT22;44854;50.838;4.438;2023-03-19T15:52:50;12.10;99.90
59067;DHT22;44854;50.838;4.438;2023-03-19T15:55:16;12.00;99.90
59067;DHT22;44854;50.838;4.438;2023-03-19T15:57:42;12.10;99.90
59067;DHT22;44854;50.838;4.438;2023-03-19T16:00:08;12.10;99.90
59067;DHT22;44854;50.838;4.438;2023-03-19T16:02:36;12.20;99.90
59067;DHT22;44854;50.838;4.438;2023-03-19T16:05:04;12.30;99.90
59067;DHT22;44854;50.838;4.438;2023-03-19T16:09:55;12.40;99.90
59067;DHT22;44854;50.838;4.438;2023-03-19T16:12:30;12.20;99.90
59067;DHT22;44854;50.838;4.438;2023-03-19T16:14:58;12.30;99.90
59067;DHT22;44854;50.838;4.438;2023-03-19T16:17:32;12.30;99.90
59067;DHT22;44854;50.838;4.438;2023-03-19T16:20:02;12.40;99.90
59067;DHT22;44854;50.838;4.438;2023-03-19T16:22:28;12.20;99.90
59067;DHT22;44854;50.838;4.438;2023-03-19T16:24:54;11.90;99.90
59067;DHT22;44854;50.838;4.438;2023-03-19T16:27:34;11.80;99.90
59067;DHT22;44854;50.838;4.438;2023-03-19T16:30:00;11.70;99.90
59067;DHT22;44854;50.838;4.438;2023-03-19T16:32:26;11.70;99.90
59067;DHT22;44854;50.838;4.438;2023-03-19T16:34:53;11.50;99.90
59067;DHT22;44854;50.838;4.438;2023-03-19T16:42:53;11.30;99.90
59067;DHT22;44854;50.838;4.438;2023-03-19T16:45:27;11.40;99.90
59067;DHT22;44854;50.838;4.438;2023-03-19T16:47:53;11.30;99.90
59067;DHT22;44854;50.838;4.438;2023-03-19T16:50:40;11.20;99.90
59067;DHT22;44854;50.838;4.438;2023-03-19T16:53:10;11.10;99.90
59067;DHT22;44854;50.838;4.438;2023-03-19T16:55:37;11.20;99.90
59067;DHT22;44854;50.838;4.438;2023-03-19T16:58:07;11.10;99.90
59067;DHT22;44854;50.838;4.438;2023-03-19T17:00:35;11.00;99.90
59067;DHT22;44854;50.838;4.438;2023-03-19T17:03:01;10.90;99.90
59067;DHT22;44854;50.838;4.438;2023-03-19T17:05:27;10.90;99.90
59067;DHT22;44854;50.838;4.438;2023-03-19T17:07:53;10.90;99.90
59067;DHT22;44854;50.838;4.438;2023-03-19T17:10:22;11.00;99.90
59067;DHT22;44854;50.838;4.438;2023-03-19T17:12:49;11.00;99.90
59067;DHT22;44854;50.838;4.438;2023-03-19T17:15:21;11.00;99.90
59067;DHT22;44854;50.838;4.438;2023-03-19T17:17:48;10.90;99.90
59067;DHT22;44854;50.838;4.438;2023-03-19T17:20:23;10.90;99.90
59067;DHT22;44854;50.838;4.438;2023-03-19T17:22:53;10.90;99.90
59067;DHT22;44854;50.838;4.438;2023-03-19T17:25:18;10.80;99.90
59067;DHT22;44854;50.838;4.438;2023-03-19T17:27:44;10.90;99.90
59067;DHT22;44854;50.838;4.438;2023-03-19T17:30:10;11.00;99.90
59067;DHT22;44854;50.838;4.438;2023-03-19T17:32:37;11.00;99.90
59067;DHT22;44854;50.838;4.438;2023-03-19T17:35:03;11.00;99.90
59067;DHT22;44854;50.838;4.438;2023-03-19T17:37:29;11.00;99.90
59067;DHT22;44854;50.838;4.438;2023-03-19T17:39:55;10.90;99.90
59067;DHT22;44854;50.838;4.438;2023-03-19T17:42:21;10.90;99.90
59067;DHT22;44854;50.838;4.438;2023-03-19T17:44:47;10.80;99.90
59067;DHT22;44854;50.838;4.438;2023-03-19T17:47:13;10.80;99.90
59067;DHT22;44854;50.838;4.438;2023-03-19T17:49:38;10.80;99.90
59067;DHT22;44854;50.838;4.438;2023-03-19T17:52:12;10.80;99.90
59067;DHT22;44854;50.838;4.438;2023-03-19T17:54:38;10.90;99.90
59067;DHT22;44854;50.838;4.438;2023-03-19T17:57:04;10.90;99.90
59067;DHT22;44854;50.838;4.438;2023-03-19T17:59:30;11.00;99.90
59067;DHT22;44854;50.838;4.438;2023-03-19T18:01:55;10.90;99.90
59067;DHT22;44854;50.838;4.438;2023-03-19T18:04:21;11.00;99.90
59067;DHT22;44854;50.838;4.438;2023-03-19T18:06:53;11.00;99.90
59067;DHT22;44854;50.838;4.438;2023-03-19T18:09:21;10.90;99.90
59067;DHT22;44854;50.838;4.438;2023-03-19T18:11:47;10.80;99.90
59067;DHT22;44854;50.838;4.438;2023-03-19T18:14:13;10.70;99.90
59067;DHT22;44854;50.838;4.438;2023-03-19T18:16:38;10.70;99.90
59067;DHT22;44854;50.838;4.438;2023-03-19T18:19:08;10.80;99.90
59067;DHT22;44854;50.838;4.438;2023-03-19T18:21:37;10.80;99.90
59067;DHT22;44854;50.838;4.438;2023-03-19T18:24:04;10.70;99.90
59067;DHT22;44854;50.838;4.438;2023-03-19T18:26:29;10.70;99.90
59067;DHT22;44854;50.838;4.438;2023-03-19T18:28:56;10.60;99.90
59067;DHT22;44854;50.838;4.438;2023-03-19T18:31:22;10.70;99.90
59067;DHT22;44854;50.838;4.438;2023-03-19T18:33:49;10.50;99.90
59067;DHT22;44854;50.838;4.438;2023-03-19T18:36:19;10.40;99.90
59067;DHT22;44854;50.838;4.438;2023-03-19T18:38:45;10.40;99.90
59067;DHT22;44854;50.838;4.438;2023-03-19T18:41:17;10.40;99.90
59067;DHT22;44854;50.838;4.438;2023-03-19T18:43:43;10.50;99.90
59067;DHT22;44854;50.838;4.438;2023-03-19T18:46:13;10.50;99.90
59067;DHT22;44854;50.838;4.438;2023-03-19T18:48:39;10.40;99.90
59067;DHT22;44854;50.838;4.438;2023-03-19T18:51:05;10.40;99.90
59067;DHT22;44854;50.838;4.438;2023-03-19T18:53:30;10.40;99.90
59067;DHT22;44854;50.838;4.438;2023-03-19T18:55:56;10.40;99.90
59067;DHT22;44854;50.838;4.438;2023-03-19T18:58:22;10.30;99.90
59067;DHT22;44854;50.838;4.438;2023-03-19T19:00:49;10.20;99.90
59067;DHT22;44854;50.838;4.438;2023-03-19T19:03:16;10.30;99.90
59067;DHT22;44854;50.838;4.438;2023-03-19T19:05:42;10.40;99.90
59067;DHT22;44854;50.838;4.438;2023-03-19T19:08:13;10.40;99.90
59067;DHT22;44854;50.838;4.438;2023-03-19T19:10:38;10.40;99.90
59067;DHT22;44854;50.838;4.438;2023-03-19T19:13:05;10.50;99.90
59067;DHT22;44854;50.838;4.438;2023-03-19T19:15:34;10.50;99.90
59067;DHT22;44854;50.838;4.438;2023-03-19T19:18:12;10.40;99.90
59067;DHT22;44854;50.838;4.438;2023-03-19T19:20:38;10.50;99.90
59067;DHT22;44854;50.838;4.438;2023-03-19T19:23:04;10.50;99.90
59067;DHT22;44854;50.838;4.438;2023-03-19T19:25:30;10.40;99.90
59067;DHT22;44854;50.838;4.438;2023-03-19T19:28:05;10.40;99.90
59067;DHT22;44854;50.838;4.438;2023-03-19T19:30:32;10.30;99.90
59067;DHT22;44854;50.838;4.438;2023-03-19T19:32:57;10.40;99.90
59067;DHT22;44854;50.838;4.438;2023-03-19T19:35:24;10.40;99.90
59067;DHT22;44854;50.838;4.438;2023-03-19T19:37:50;10.50;99.90
59067;DHT22;44854;50.838;4.438;2023-03-19T19:40:17;10.60;99.90
59067;DHT22;44854;50.838;4.438;2023-03-19T19:42:43;10.50;99.90
59067;DHT22;44854;50.838;4.438;2023-03-19T19:47:55;10.40;99.90
59067;DHT22;44854;50.838;4.438;2023-03-19T19:50:21;10.40;99.90
59067;DHT22;44854;50.838;4.438;2023-03-19T19:52:50;10.50;99.90
59067;DHT22;44854;50.838;4.438;2023-03-19T19:55:16;10.50;99.90
59067;DHT22;44854;50.838;4.438;2023-03-19T19:57:42;10.50;99.90
59067;DHT22;44854;50.838;4.438;2023-03-19T20:00:18;10.50;99.90
59067;DHT22;44854;50.838;4.438;2023-03-19T20:02:45;10.50;99.90
59067;DHT22;44854;50.838;4.438;2023-03-19T20:05:14;10.40;99.90
59067;DHT22;44854;50.838;4.438;2023-03-19T20:07:40;10.30;99.90
59067;DHT22;44854;50.838;4.438;2023-03-19T20:10:06;10.20;99.90
59067;DHT22;44854;50.838;4.438;2023-03-19T20:12:32;10.20;99.90
59067;DHT22;44854;50.838;4.438;2023-03-19T20:14:57;10.20;99.90
59067;DHT22;44854;50.838;4.438;2023-03-19T20:17:23;10.20;99.90
59067;DHT22;44854;50.838;4.438;2023-03-19T20:19:49;10.20;99.90
59067;DHT22;44854;50.838;4.438;2023-03-19T20:22:15;10.20;99.90
59067;DHT22;44854;50.838;4.438;2023-03-19T20:24:41;10.20;99.90
59067;DHT22;44854;50.838;4.438;2023-03-19T20:27:26;10.10;99.90
59067;DHT22;44854;50.838;4.438;2023-03-19T20:29:54;10.10;99.90
59067;DHT22;44854;50.838;4.438;2023-03-19T20:34:45;10.10;99.90
59067;DHT22;44854;50.838;4.438;2023-03-19T20:37:11;10.00;99.90
59067;DHT22;44854;50.838;4.438;2023-03-19T20:39:37;9.90;99.90
59067;DHT22;44854;50.838;4.438;2023-03-19T20:42:02;9.90;99.90
59067;DHT22;44854;50.838;4.438;2023-03-19T20:44:28;10.00;99.90
59067;DHT22;44854;50.838;4.438;2023-03-19T20:46:54;10.00;99.90
59067;DHT22;44854;50.838;4.438;2023-03-19T20:49:20;9.90;99.90
59067;DHT22;44854;50.838;4.438;2023-03-19T20:51:46;9.90;99.90
59067;DHT22;44854;50.838;4.438;2023-03-19T20:54:11;9.90;99.90
59067;DHT22;44854;50.838;4.438;2023-03-19T20:56:37;9.80;99.90
59067;DHT22;44854;50.838;4.438;2023-03-19T20:59:03;9.90;99.90
59067;DHT22;44854;50.838;4.438;2023-03-19T21:01:28;9.80;99.90
59067;DHT22;44854;50.838;4.438;2023-03-19T21:03:54;9.90;99.90
59067;DHT22;44854;50.838;4.438;2023-03-19T21:06:20;9.80;99.90
59067;DHT22;44854;50.838;4.438;2023-03-19T21:08:47;9.90;99.90
59067;DHT22;44854;50.838;4.438;2023-03-19T21:11:14;9.90;99.90
59067;DHT22;44854;50.838;4.438;2023-03-19T21:13:43;9.80;99.90
59067;DHT22;44854;50.838;4.438;2023-03-19T21:16:13;9.70;99.90
59067;DHT22;44854;50.838;4.438;2023-03-19T21:18:39;9.80;99.90
59067;DHT22;44854;50.838;4.438;2023-03-19T21:21:05;9.90;99.90
59067;DHT22;44854;50.838;4.438;2023-03-19T21:23:32;9.90;99.90
59067;DHT22;44854;50.838;4.438;2023-03-19T21:26:04;9.90;99.90
59067;DHT22;44854;50.838;4.438;2023-03-19T21:28:34;9.90;99.90
59067;DHT22;44854;50.838;4.438;2023-03-19T21:31:00;9.90;99.90
59067;DHT22;44854;50.838;4.438;2023-03-19T21:33:30;9.90;99.90
59067;DHT22;44854;50.838;4.438;2023-03-19T21:35:57;9.80;99.90
59067;DHT22;44854;50.838;4.438;2023-03-19T21:38:23;9.70;99.90
59067;DHT22;44854;50.838;4.438;2023-03-19T21:40:49;9.70;99.90
59067;DHT22;44854;50.838;4.438;2023-03-19T21:43:16;9.70;99.90
59067;DHT22;44854;50.838;4.438;2023-03-19T21:45:43;9.60;99.90
59067;DHT22;44854;50.838;4.438;2023-03-19T21:48:22;9.60;99.90
59067;DHT22;44854;50.838;4.438;2023-03-19T21:50:49;9.50;99.90
59067;DHT22;44854;50.838;4.438;2023-03-19T21:53:15;9.40;99.90
59067;DHT22;44854;50.838;4.438;2023-03-19T21:55:41;9.40;99.90
59067;DHT22;44854;50.838;4.438;2023-03-19T21:58:14;9.30;99.90
59067;DHT22;44854;50.838;4.438;2023-03-19T22:00:40;9.30;99.90
59067;DHT22;44854;50.838;4.438;2023-03-19T22:03:07;9.30;99.90
59067;DHT22;44854;50.838;4.438;2023-03-19T22:05:38;9.10;99.90
59067;DHT22;44854;50.838;4.438;2023-03-19T22:08:03;9.00;99.90
59067;DHT22;44854;50.838;4.438;2023-03-19T22:10:29;9.10;99.90
59067;DHT22;44854;50.838;4.438;2023-03-19T22:12:55;9.00;99.90
59067;DHT22;44854;50.838;4.438;2023-03-19T22:17:47;9.00;99.90
59067;DHT22;44854;50.838;4.438;2023-03-19T22:20:19;8.90;99.90
59067;DHT22;44854;50.838;4.438;2023-03-19T22:22:45;9.00;99.90
59067;DHT22;44854;50.838;4.438;2023-03-19T22:25:11;9.00;99.90
59067;DHT22;44854;50.838;4.438;2023-03-19T22:27:38;9.00;99.90
59067;DHT22;44854;50.838;4.438;2023-03-19T22:30:04;9.00;99.90
59067;DHT22;44854;50.838;4.438;2023-03-19T22:32:30;8.90;99.90
59067;DHT22;44854;50.838;4.438;2023-03-19T22:34:55;8.90;99.90
59067;DHT22;44854;50.838;4.438;2023-03-19T22:37:25;8.90;99.90
59067;DHT22;44854;50.838;4.438;2023-03-19T22:39:51;8.80;99.90
59067;DHT22;44854;50.838;4.438;2023-03-19T22:42:16;8.70;99.90
59067;DHT22;44854;50.838;4.438;2023-03-19T22:44:42;8.70;99.90
59067;DHT22;44854;50.838;4.438;2023-03-19T22:47:09;8.70;99.90
59067;DHT22;44854;50.838;4.438;2023-03-19T22:49:41;8.70;99.90
59067;DHT22;44854;50.838;4.438;2023-03-19T22:52:08;8.70;99.90
59067;DHT22;44854;50.838;4.438;2023-03-19T22:54:33;8.70;99.90
59067;DHT22;44854;50.838;4.438;2023-03-19T22:56:59;8.70;99.90
59067;DHT22;44854;50.838;4.438;2023-03-19T22:59:25;8.60;99.90
59067;DHT22;44854;50.838;4.438;2023-03-19T23:01:52;8.50;99.90
59067;DHT22;44854;50.838;4.438;2023-03-19T23:04:19;8.40;99.90
59067;DHT22;44854;50.838;4.438;2023-03-19T23:06:47;8.40;99.90
59067;DHT22;44854;50.838;4.438;2023-03-19T23:09:14;8.50;99.90
59067;DHT22;44854;50.838;4.438;2023-03-19T23:11:40;8.40;99.90
59067;DHT22;44854;50.838;4.438;2023-03-19T23:14:06;8.40;99.90
59067;DHT22;44854;50.838;4.438;2023-03-19T23:16:31;8.40;99.90
59067;DHT22;44854;50.838;4.438;2023-03-19T23:18:57;8.40;99.90
